USCGC Eagle — NRCB — position and weather

sailwx.info

Track history (hours):
 
Tides and Currents Weather Stations Pressure Air Temp Water Temp Dewpoint Dewpoint Depression Visibility Wind Speed Wind Dir Waves Ship Positions

USCGC Eagle (United States)

Training ship of US Coast Guard Academy, and only square-rigger in active service in the US armed services. Ex German ship Horst Wessel.

Ship's website: http://www.cga.edu/eagle/

Last reported at 2019-Aug-21 19:51 UTC. Time now 2019-Aug-22 09:50 UTC.
Position N 41°21' W 072°05'.

Type: Sailing vessel. MMSI: 303990000.

Date/timePositionNaut miles runAvg speedWind from/ knotsBaromVisibWave heightAir tempDewpointWater temp
2019-Aug-21 19:51N 41°21' W 072°05'0 0.0
2019-Aug-21 19:30N 41°21' W 072°05'0 0.0
2019-Aug-21 19:00N 41°21' W 072°05'0 0.0
2019-Aug-21 18:27N 41°21' W 072°05'0 0.0
2019-Aug-21 17:57N 41°21' W 072°05'0 0.0
2019-Aug-21 17:27N 41°21' W 072°05'0 0.0
2019-Aug-21 16:57N 41°21' W 072°05'0 0.0
2019-Aug-21 16:30N 41°21' W 072°05'0 0.0
2019-Aug-21 16:00N 41°21' W 072°05'0 0.0
2019-Aug-21 15:30N 41°21' W 072°05'0 0.0
2019-Aug-21 15:00N 41°21' W 072°05'0 0.0
2019-Aug-21 14:30N 41°21' W 072°05'1 2.3
2019-Aug-21 14:00N 41°20' W 072°05'2 4.6
2019-Aug-21 13:30N 41°17' W 072°04'0 0.1
2019-Aug-21 12:59N 41°17' W 072°04'0 0.1
2019-Aug-21 12:29N 41°17' W 072°04'0 0.0
2019-Aug-21 11:59N 41°17' W 072°04'0 0.0
2019-Aug-21 11:29N 41°17' W 072°04'0 0.0
2019-Aug-21 10:59N 41°17' W 072°04'0 0.0
2019-Aug-21 10:29N 41°17' W 072°04'0 0.0
2019-Aug-21 09:59N 41°17' W 072°04'0 0.0
2019-Aug-21 09:29N 41°17' W 072°04'0 0.0
2019-Aug-21 08:59N 41°17' W 072°04'0 0.0
2019-Aug-21 08:29N 41°17' W 072°04'0 0.1
2019-Aug-21 07:59N 41°17' W 072°04'0 0.1
2019-Aug-21 07:28N 41°17' W 072°04'0 0.0
2019-Aug-21 06:58N 41°17' W 072°04'0 0.0
2019-Aug-21 06:28N 41°17' W 072°04'0 0.0
2019-Aug-21 05:58N 41°17' W 072°04'0 0.0
2019-Aug-21 05:28N 41°17' W 072°04'0 0.0
2019-Aug-21 04:58N 41°17' W 072°04'0 0.0
2019-Aug-21 04:28N 41°17' W 072°04'0 0.0
2019-Aug-21 03:58N 41°17' W 072°04'0 0.0
2019-Aug-21 03:28N 41°17' W 072°04'0 0.0
2019-Aug-21 02:58N 41°17' W 072°04'0 0.0
2019-Aug-21 02:28N 41°17' W 072°04'0 0.0
2019-Aug-21 01:58N 41°17' W 072°04'0 0.0
2019-Aug-21 01:28N 41°17' W 072°04'0 0.1
2019-Aug-21 00:55N 41°17' W 072°04'0 0.0
2019-Aug-21 00:28N 41°17' W 072°04'0 0.0
2019-Aug-21 00:01N 41°17' W 072°04'0 0.0
2019-Aug-20 23:28N 41°17' W 072°04'0 0.0
2019-Aug-20 22:58N 41°17' W 072°04'0 0.0
2019-Aug-20 22:28N 41°17' W 072°04'0 0.0
2019-Aug-20 21:58N 41°17' W 072°04'0 0.0
2019-Aug-20 21:28N 41°17' W 072°04'0 0.0
2019-Aug-20 20:58N 41°17' W 072°04'0 0.0
2019-Aug-20 20:28N 41°17' W 072°04'0 0.0
2019-Aug-20 19:58N 41°17' W 072°04'1 2.0
2019-Aug-20 19:31N 41°16' W 072°04'4 7.6
2019-Aug-20 19:00N 41°13' W 072°01'32 6.3
2019-Aug-20 13:59N 40°45' W 071°43'5 7.5
2019-Aug-20 13:18N 40°40' W 071°43'107 5.3
2019-Aug-19 17:07N 40°38' W 074°03'1 7.3
2019-Aug-19 17:00N 40°39' W 074°03'4 7.7
2019-Aug-19 16:30N 40°42' W 074°02'  
2019-Aug-16 13:47N 40°46' W 074°00'3 5.7
2019-Aug-16 13:17N 40°44' W 074°01'2 7.1
2019-Aug-16 13:00N 40°42' W 074°02'1 1.1
2019-Aug-16 12:27N 40°41' W 074°02'0 0.0
2019-Aug-16 12:00N 40°41' W 074°02'0 0.0
2019-Aug-16 11:30N 40°41' W 074°02'0 0.1
2019-Aug-16 10:54N 40°41' W 074°02'0 0.1
2019-Aug-16 10:30N 40°41' W 074°02'0 0.0
2019-Aug-16 09:59N 40°41' W 074°02'0 0.0
2019-Aug-16 09:27N 40°41' W 074°02'0 0.0
2019-Aug-16 08:57N 40°41' W 074°02'0 0.0
2019-Aug-16 08:29N 40°41' W 074°02'0 0.0
2019-Aug-16 07:59N 40°41' W 074°02'0 0.0
2019-Aug-16 07:23N 40°41' W 074°02'0 0.0
2019-Aug-16 06:59N 40°41' W 074°02'0 0.0
2019-Aug-16 06:30N 40°41' W 074°02'0 0.0
2019-Aug-16 06:00N 40°41' W 074°02'0 0.0
2019-Aug-16 05:30N 40°41' W 074°02'0 0.0
2019-Aug-16 05:00N 40°41' W 074°02'0 0.0
2019-Aug-16 04:30N 40°41' W 074°02'0 0.0
2019-Aug-16 04:00N 40°41' W 074°02'0 0.2
2019-Aug-16 03:30N 40°41' W 074°02'0 0.1
2019-Aug-16 03:00N 40°41' W 074°02'0 0.0
2019-Aug-16 02:29N 40°41' W 074°02'0 0.0
2019-Aug-16 01:59N 40°41' W 074°02'0 0.0
2019-Aug-16 01:17N 40°41' W 074°02'0 0.0
2019-Aug-16 00:51N 40°41' W 074°02'0 0.0
2019-Aug-16 00:29N 40°41' W 074°02'0 0.0
2019-Aug-15 23:57N 40°41' W 074°02'0 0.0
2019-Aug-15 23:30N 40°41' W 074°02'0 0.0
2019-Aug-15 22:48N 40°41' W 074°02'0 0.0
2019-Aug-15 22:24N 40°41' W 074°02'0 0.2
2019-Aug-15 22:00N 40°41' W 074°02'0 0.1
2019-Aug-15 21:30N 40°41' W 074°02'0 0.0
2019-Aug-15 21:00N 40°41' W 074°02'0 0.0
2019-Aug-15 20:30N 40°41' W 074°02'0 0.0
2019-Aug-15 20:00N 40°41' W 074°02'0 0.0
2019-Aug-15 19:30N 40°41' W 074°02'2 3.1
2019-Aug-15 19:00N 40°40' W 074°03'  
2019-Aug-12 15:07N 42°32' W 070°45'1 7.9
2019-Aug-12 15:00N 42°32' W 070°46'  
Track history (hours):
 
Tides and Currents Weather Stations Pressure Air Temp Water Temp Dewpoint Dewpoint Depression Visibility Wind Speed Wind Dir Waves Ship Positions

USCGC Eagle (United States)

Training ship of US Coast Guard Academy, and only square-rigger in active service in the US armed services. Ex German ship Horst Wessel.

Ship's website: http://www.cga.edu/eagle/

Last reported at 2019-Aug-21 19:51 UTC. Time now 2019-Aug-22 09:50 UTC.
Position N 41°21' W 072°05'.

Type: Sailing vessel. MMSI: 303990000.

Date/timePositionNaut miles runAvg speedWind from/ knotsBaromVisibWave heightAir tempDewpointWater temp
2019-Aug-21 19:51N 41°21' W 072°05'0 0.0
2019-Aug-21 19:30N 41°21' W 072°05'0 0.0
2019-Aug-21 19:00N 41°21' W 072°05'0 0.0
2019-Aug-21 18:27N 41°21' W 072°05'0 0.0
2019-Aug-21 17:57N 41°21' W 072°05'0 0.0
2019-Aug-21 17:27N 41°21' W 072°05'0 0.0
2019-Aug-21 16:57N 41°21' W 072°05'0 0.0
2019-Aug-21 16:30N 41°21' W 072°05'0 0.0
2019-Aug-21 16:00N 41°21' W 072°05'0 0.0
2019-Aug-21 15:30N 41°21' W 072°05'0 0.0
2019-Aug-21 15:00N 41°21' W 072°05'0 0.0
2019-Aug-21 14:30N 41°21' W 072°05'1 2.3
2019-Aug-21 14:00N 41°20' W 072°05'2 4.6
2019-Aug-21 13:30N 41°17' W 072°04'0 0.1
2019-Aug-21 12:59N 41°17' W 072°04'0 0.1
2019-Aug-21 12:29N 41°17' W 072°04'0 0.0
2019-Aug-21 11:59N 41°17' W 072°04'0 0.0
2019-Aug-21 11:29N 41°17' W 072°04'0 0.0
2019-Aug-21 10:59N 41°17' W 072°04'0 0.0
2019-Aug-21 10:29N 41°17' W 072°04'0 0.0
2019-Aug-21 09:59N 41°17' W 072°04'0 0.0
2019-Aug-21 09:29N 41°17' W 072°04'0 0.0
2019-Aug-21 08:59N 41°17' W 072°04'0 0.0
2019-Aug-21 08:29N 41°17' W 072°04'0 0.1
2019-Aug-21 07:59N 41°17' W 072°04'0 0.1
2019-Aug-21 07:28N 41°17' W 072°04'0 0.0
2019-Aug-21 06:58N 41°17' W 072°04'0 0.0
2019-Aug-21 06:28N 41°17' W 072°04'0 0.0
2019-Aug-21 05:58N 41°17' W 072°04'0 0.0
2019-Aug-21 05:28N 41°17' W 072°04'0 0.0
2019-Aug-21 04:58N 41°17' W 072°04'0 0.0
2019-Aug-21 04:28N 41°17' W 072°04'0 0.0
2019-Aug-21 03:58N 41°17' W 072°04'0 0.0
2019-Aug-21 03:28N 41°17' W 072°04'0 0.0
2019-Aug-21 02:58N 41°17' W 072°04'0 0.0
2019-Aug-21 02:28N 41°17' W 072°04'0 0.0
2019-Aug-21 01:58N 41°17' W 072°04'0 0.0
2019-Aug-21 01:28N 41°17' W 072°04'0 0.1
2019-Aug-21 00:55N 41°17' W 072°04'0 0.0
2019-Aug-21 00:28N 41°17' W 072°04'0 0.0
2019-Aug-21 00:01N 41°17' W 072°04'0 0.0
2019-Aug-20 23:28N 41°17' W 072°04'0 0.0
2019-Aug-20 22:58N 41°17' W 072°04'0 0.0
2019-Aug-20 22:28N 41°17' W 072°04'0 0.0
2019-Aug-20 21:58N 41°17' W 072°04'0 0.0
2019-Aug-20 21:28N 41°17' W 072°04'0 0.0
2019-Aug-20 20:58N 41°17' W 072°04'0 0.0
2019-Aug-20 20:28N 41°17' W 072°04'0 0.0
2019-Aug-20 19:58N 41°17' W 072°04'1 2.0
2019-Aug-20 19:31N 41°16' W 072°04'4 7.6
2019-Aug-20 19:00N 41°13' W 072°01'32 6.3
2019-Aug-20 13:59N 40°45' W 071°43'5 7.5
2019-Aug-20 13:18N 40°40' W 071°43'107 5.3
2019-Aug-19 17:07N 40°38' W 074°03'1 7.3
2019-Aug-19 17:00N 40°39' W 074°03'4 7.7
2019-Aug-19 16:30N 40°42' W 074°02'  
2019-Aug-16 13:47N 40°46' W 074°00'3 5.7
2019-Aug-16 13:17N 40°44' W 074°01'2 7.1
2019-Aug-16 13:00N 40°42' W 074°02'1 1.1
2019-Aug-16 12:27N 40°41' W 074°02'0 0.0
2019-Aug-16 12:00N 40°41' W 074°02'0 0.0
2019-Aug-16 11:30N 40°41' W 074°02'0 0.1
2019-Aug-16 10:54N 40°41' W 074°02'0 0.1
2019-Aug-16 10:30N 40°41' W 074°02'0 0.0
2019-Aug-16 09:59N 40°41' W 074°02'0 0.0
2019-Aug-16 09:27N 40°41' W 074°02'0 0.0
2019-Aug-16 08:57N 40°41' W 074°02'0 0.0
2019-Aug-16 08:29N 40°41' W 074°02'0 0.0
2019-Aug-16 07:59N 40°41' W 074°02'0 0.0
2019-Aug-16 07:23N 40°41' W 074°02'0 0.0
2019-Aug-16 06:59N 40°41' W 074°02'0 0.0
2019-Aug-16 06:30N 40°41' W 074°02'0 0.0
2019-Aug-16 06:00N 40°41' W 074°02'0 0.0
2019-Aug-16 05:30N 40°41' W 074°02'0 0.0
2019-Aug-16 05:00N 40°41' W 074°02'0 0.0
2019-Aug-16 04:30N 40°41' W 074°02'0 0.0
2019-Aug-16 04:00N 40°41' W 074°02'0 0.2
2019-Aug-16 03:30N 40°41' W 074°02'0 0.1
2019-Aug-16 03:00N 40°41' W 074°02'0 0.0
2019-Aug-16 02:29N 40°41' W 074°02'0 0.0
2019-Aug-16 01:59N 40°41' W 074°02'0 0.0
2019-Aug-16 01:17N 40°41' W 074°02'0 0.0
2019-Aug-16 00:51N 40°41' W 074°02'0 0.0
2019-Aug-16 00:29N 40°41' W 074°02'0 0.0
2019-Aug-15 23:57N 40°41' W 074°02'0 0.0
2019-Aug-15 23:30N 40°41' W 074°02'0 0.0
2019-Aug-15 22:48N 40°41' W 074°02'0 0.0
2019-Aug-15 22:24N 40°41' W 074°02'0 0.2
2019-Aug-15 22:00N 40°41' W 074°02'0 0.1
2019-Aug-15 21:30N 40°41' W 074°02'0 0.0
2019-Aug-15 21:00N 40°41' W 074°02'0 0.0
2019-Aug-15 20:30N 40°41' W 074°02'0 0.0
2019-Aug-15 20:00N 40°41' W 074°02'0 0.0
2019-Aug-15 19:30N 40°41' W 074°02'2 3.1
2019-Aug-15 19:00N 40°40' W 074°03'  
2019-Aug-12 15:07N 42°32' W 070°45'1 7.9
2019-Aug-12 15:00N 42°32' W 070°46'  

Dump ship's entire track history